Perry, New York
Current Conditions -  °F | °C
As of 5:54 AM on Wednesday 22 Oct 2014 (Local Time) from KDSV Reporting Station
Light Rain Light Rain  
Wind Chill:   Ceiling: 800
Heat Index:   Visibility: 10mi
Dew Point:   Wind: 10mph
Humidity: 93%   Direction: 310°NW
Pressure: 30.12"   Gusts: NA
Location:  42.72°N, 78.01°W
Report Text: KDSV 220954Z AUTO 31009KT 10SM -RA OVC008 08/07 A3012 RMK AO2 RAB17E33B41 CIG 004V010 SLP209 P0000 T00780067
Loading
Personal Weather Stations






























Interactive Weather Map
Tropical Storm Tracking
New forecast layout! Learn more

10-Day Weather Forecast

Advertisements
Track Severe Weather on mobile